< < Back
Terminal Aerodrome Forecast


Current Version              Previous Versions:   1  2  3  4  5  6  7  8  9  

Terminal Aerodrome Forecast

747
FTUS42 KFFC 181100 AAA
TAFATL
TAF AMD
KATL 181140Z 1812/1918 01004KT P6SM SCT008
      TEMPO 1812/1814 6SM BR BKN005
     FM181400 04006KT P6SM SCT025
     FM181700 34007KT P6SM SCT045
     FM190500 02006KT P6SM SCT025
     FM190900 05006KT P6SM OVC010
     FM191500 08008KT P6SM OVC020=

Latest METAR

630
SAUS70 KWBC 181300 RRC
MTRATL
METAR KATL 181252Z 05007KT 1/2SM BR OVC002 19/17 A2999 RMK AO2 SFC VIS 2
SLP147 CIG 001V003 TWRINC T01940172


USA.gov is the U.S. government's official web portal to all federal, state and local government web resources and services.